Time;durP1;ratioP1;P1;durP2;ratioP2;P2;SDS_P1;SDS_P2;PMS_P1;PMS_P2;Temp;Humidity;BMP_temperature;BMP_pressure;BME280_temperature;BME280_humidity;BME280_pressure;Samples;Min_cycle;Max_cycle;Signal;HPM_P1;HPM_P2
2023/01/29 00:02:05;;;;;;;70.03;35.95;;;1.10;99.90;;;;;;5009051;28;20441;-71
2023/01/29 00:04:30;;;;;;;75.32;36.85;;;1.10;99.90;;;;;;5012569;28;20045;-70
2023/01/29 00:06:56;;;;;;;72.78;37.42;;;1.10;99.90;;;;;;5013567;28;20108;-72
2023/01/29 00:09:22;;;;;;;72.30;37.00;;;1.10;99.90;;;;;;5008111;28;20070;-70
2023/01/29 00:11:48;;;;;;;71.65;35.03;;;1.10;99.90;;;;;;5013846;28;20034;-71
2023/01/29 00:14:13;;;;;;;73.43;33.72;;;1.10;99.90;;;;;;5008485;28;20062;-73
2023/01/29 00:16:39;;;;;;;68.90;34.22;;;1.10;99.90;;;;;;5015205;28;20039;-73
2023/01/29 00:19:05;;;;;;;68.57;35.13;;;1.10;99.90;;;;;;5017125;28;20036;-73
2023/01/29 00:21:31;;;;;;;71.30;34.97;;;1.10;99.90;;;;;;5012114;28;20491;-73
2023/01/29 00:23:57;;;;;;;68.38;33.38;;;1.10;99.90;;;;;;5013772;28;20050;-73
2023/01/29 00:26:23;;;;;;;67.80;34.95;;;1.10;99.90;;;;;;5008615;28;20045;-73
2023/01/29 00:28:49;;;;;;;67.95;33.08;;;1.10;99.90;;;;;;5012620;28;20069;-73
2023/01/29 00:31:24;;;;;;;72.28;37.35;;;1.10;99.90;;;;;;5008861;28;20562;-70
2023/01/29 00:33:50;;;;;;;70.93;37.15;;;1.10;99.90;;;;;;5012427;28;20025;-73
2023/01/29 00:36:18;;;;;;;73.68;35.60;;;1.10;99.90;;;;;;5009250;28;20076;-70
2023/01/29 00:38:45;;;;;;;68.45;34.38;;;1.10;99.90;;;;;;5012117;28;20026;-71
2023/01/29 00:46:43;;;;;;;68.50;32.75;;;1.00;99.90;;;;;;5008452;28;20042;-70
2023/01/29 00:49:08;;;;;;;71.90;33.70;;;0.90;99.90;;;;;;5012564;28;20033;-71
2023/01/29 00:51:35;;;;;;;70.55;33.72;;;0.90;99.90;;;;;;5012053;28;20054;-70
2023/01/29 00:54:05;;;;;;;71.03;34.13;;;0.90;99.90;;;;;;5005258;28;20386;-70
2023/01/29 00:56:33;;;;;;;73.70;34.15;;;0.90;99.90;;;;;;5013408;28;20032;-70
2023/01/29 00:58:59;;;;;;;68.43;34.00;;;0.90;99.90;;;;;;5016192;28;20018;-71
2023/01/29 01:04:10;;;;;;;66.55;31.60;;;0.90;99.90;;;;;;5006221;28;20406;-70
2023/01/29 01:06:40;;;;;;;65.20;31.40;;;0.80;99.90;;;;;;5006767;28;20048;-70
2023/01/29 01:11:52;;;;;;;64.40;30.42;;;0.80;99.90;;;;;;5011010;28;20044;-70
2023/01/29 01:14:19;;;;;;;70.35;32.25;;;0.80;99.90;;;;;;5004507;28;20022;-70
2023/01/29 01:16:46;;;;;;;69.15;31.85;;;0.80;99.90;;;;;;5012965;28;20064;-70
2023/01/29 01:19:13;;;;;;;69.97;32.22;;;0.80;99.90;;;;;;5009748;28;20026;-70
2023/01/29 01:21:44;;;;;;;66.00;31.83;;;0.80;99.90;;;;;;5006864;28;20402;-69
2023/01/29 01:24:10;;;;;;;66.85;30.48;;;0.70;99.90;;;;;;5005504;28;20014;-70
2023/01/29 01:26:36;;;;;;;69.45;32.72;;;0.80;99.90;;;;;;5009353;28;20046;-70
2023/01/29 01:29:01;;;;;;;66.88;31.15;;;0.90;99.90;;;;;;5011132;28;20045;-70
2023/01/29 01:31:27;;;;;;;65.82;30.52;;;0.80;99.90;;;;;;5002455;28;20042;-70
2023/01/29 01:33:54;;;;;;;61.97;29.42;;;0.90;99.90;;;;;;5010393;28;20037;-70
2023/01/29 01:36:20;;;;;;;64.90;30.50;;;0.90;99.90;;;;;;5009935;28;20030;-70
2023/01/29 01:38:46;;;;;;;66.68;30.83;;;0.90;99.90;;;;;;5010806;28;20017;-70
2023/01/29 01:41:17;;;;;;;62.60;30.50;;;0.90;99.90;;;;;;5007620;28;20037;-70
2023/01/29 01:43:58;;;;;;;63.97;30.30;;;0.80;99.90;;;;;;5012843;28;20478;-70
2023/01/29 01:46:28;;;;;;;69.63;28.70;;;0.80;99.90;;;;;;5009577;28;20033;-70
2023/01/29 01:49:04;;;;;;;65.85;29.00;;;0.80;99.90;;;;;;5005759;28;20021;-70
2023/01/29 01:51:32;;;;;;;60.28;28.92;;;0.80;99.90;;;;;;5010906;28;20034;-70
2023/01/29 01:54:01;;;;;;;64.90;29.30;;;0.80;99.90;;;;;;5005170;28;20501;-70
2023/01/29 01:56:39;;;;;;;63.88;28.55;;;0.80;99.90;;;;;;5006029;28;20041;-71
2023/01/29 01:59:08;;;;;;;63.90;28.60;;;0.80;99.90;;;;;;5008455;28;20025;-70
2023/01/29 02:01:34;;;;;;;60.40;27.88;;;0.90;99.90;;;;;;5009047;28;20030;-70
2023/01/29 02:10:03;;;;;;;64.88;30.60;;;0.80;99.90;;;;;;5010605;28;20036;-70
2023/01/29 02:12:30;;;;;;;63.53;29.20;;;0.80;99.90;;;;;;5010977;28;20067;-70
2023/01/29 02:14:56;;;;;;;65.65;28.60;;;0.70;99.90;;;;;;5008297;28;20014;-70
2023/01/29 02:17:22;;;;;;;65.50;29.27;;;0.70;99.90;;;;;;5010935;28;20022;-72
2023/01/29 02:20:05;;;;;;;67.10;28.75;;;0.70;99.90;;;;;;5007523;28;20025;-70
2023/01/29 02:23:05;;;;;;;62.67;28.65;;;0.70;99.90;;;;;;5012355;28;20068;-71
2023/01/29 02:25:49;;;;;;;67.55;30.80;;;0.70;99.90;;;;;;4998628;28;20089;-70
2023/01/29 02:28:33;;;;;;;58.85;28.65;;;0.70;99.90;;;;;;5005210;28;20025;-71
2023/01/29 02:31:08;;;;;;;61.08;29.17;;;0.80;99.90;;;;;;5009180;28;20379;-70
2023/01/29 02:33:39;;;;;;;62.85;31.38;;;0.80;99.90;;;;;;5009399;28;20069;-70
2023/01/29 02:36:23;;;;;;;60.58;27.98;;;0.80;99.90;;;;;;5008173;28;20030;-70
2023/01/29 02:39:05;;;;;;;61.28;27.83;;;0.70;99.90;;;;;;5009441;28;20030;-70
2023/01/29 02:41:40;;;;;;;63.88;28.85;;;0.80;99.90;;;;;;5007861;28;20026;-70
2023/01/29 02:44:36;;;;;;;61.33;29.25;;;0.80;99.90;;;;;;5021785;28;20038;-70
2023/01/29 02:47:20;;;;;;;60.83;28.30;;;0.80;99.90;;;;;;5004226;28;20109;-70
2023/01/29 02:50:17;;;;;;;60.83;29.35;;;0.70;99.90;;;;;;5007001;28;20041;-71
2023/01/29 02:52:57;;;;;;;64.93;29.50;;;0.70;99.90;;;;;;5001025;28;20034;-70
2023/01/29 02:55:33;;;;;;;58.85;27.80;;;0.80;99.90;;;;;;5010116;28;20124;-70
2023/01/29 02:58:10;;;;;;;61.95;28.75;;;0.80;99.90;;;;;;5011413;28;20010;-71
2023/01/29 03:00:41;;;;;;;58.67;29.08;;;0.80;99.90;;;;;;5010646;28;20085;-71
2023/01/29 03:03:10;;;;;;;56.90;27.55;;;0.80;99.90;;;;;;5009620;28;20069;-70
2023/01/29 03:05:49;;;;;;;61.25;28.85;;;0.90;99.90;;;;;;5002773;28;20042;-70
2023/01/29 03:08:21;;;;;;;60.42;29.00;;;0.90;99.90;;;;;;5009914;28;20018;-70
2023/01/29 03:10:56;;;;;;;63.95;29.15;;;0.90;99.90;;;;;;5009921;28;20034;-70
2023/01/29 03:13:32;;;;;;;62.53;30.05;;;0.90;99.90;;;;;;5005078;28;20066;-70
2023/01/29 03:16:08;;;;;;;62.92;30.63;;;0.80;99.90;;;;;;5008889;28;20105;-70
2023/01/29 03:18:45;;;;;;;67.53;30.27;;;0.80;99.90;;;;;;5005989;28;20027;-69
2023/01/29 03:32:23;;;;;;;64.78;29.65;;;0.80;99.90;;;;;;5010518;28;20092;-69
2023/01/29 03:34:56;;;;;;;65.00;28.95;;;0.80;99.90;;;;;;5011363;28;20037;-70
2023/01/29 03:37:24;;;;;;;;;;;0.80;99.90;;;;;;5007568;28;20248;-70
2023/01/29 03:39:50;;;;;;;63.53;27.20;;;0.80;99.90;;;;;;4994785;28;19917;-71
2023/01/29 03:42:20;;;;;;;61.55;29.45;;;0.90;99.90;;;;;;5012533;28;20042;-70
2023/01/29 03:45:25;;;;;;;62.20;28.95;;;0.90;99.90;;;;;;4996798;28;20045;-70
2023/01/29 03:47:57;;;;;;;63.83;28.75;;;0.80;99.90;;;;;;5009314;28;20042;-70
2023/01/29 03:50:53;;;;;;;68.53;31.60;;;0.90;99.90;;;;;;5003870;28;20141;-70
2023/01/29 03:53:21;;;;;;;72.60;30.88;;;0.90;99.90;;;;;;5009917;28;20054;-69
2023/01/29 03:55:46;;;;;;;71.32;31.65;;;0.80;99.90;;;;;;5003848;28;20035;-70
2023/01/29 03:58:54;;;;;;;70.00;31.15;;;0.90;99.90;;;;;;5010521;28;20053;-70
2023/01/29 04:01:26;;;;;;;67.78;29.77;;;0.90;99.90;;;;;;5009080;28;20352;-70
2023/01/29 04:04:02;;;;;;;66.15;32.10;;;0.90;99.90;;;;;;5010597;28;20068;-70
2023/01/29 04:06:33;;;;;;;72.43;33.92;;;0.90;99.90;;;;;;5012284;28;20096;-71
2023/01/29 04:09:08;;;;;;;76.13;33.28;;;0.90;99.90;;;;;;5011434;28;20021;-71
2023/01/29 04:11:39;;;;;;;71.10;33.50;;;0.90;99.90;;;;;;5009395;28;20030;-71
2023/01/29 04:14:06;;;;;;;79.30;35.15;;;0.80;99.90;;;;;;5009621;28;20077;-70
2023/01/29 04:16:37;;;;;;;75.22;34.35;;;0.90;99.90;;;;;;5013123;28;20026;-70
2023/01/29 04:19:04;;;;;;;68.00;32.60;;;0.90;99.90;;;;;;5013495;28;20096;-71
2023/01/29 04:21:31;;;;;;;71.22;31.70;;;0.90;99.90;;;;;;5010420;28;20025;-71
2023/01/29 04:23:57;;;;;;;75.93;33.25;;;1.00;99.90;;;;;;5014767;28;20100;-70
2023/01/29 04:26:31;;;;;;;70.88;31.50;;;1.00;99.90;;;;;;5015433;28;20124;-70
2023/01/29 04:29:08;;;;;;;72.65;31.52;;;0.90;99.90;;;;;;5014416;28;20037;-70
2023/01/29 04:31:58;;;;;;;71.55;31.27;;;1.00;99.90;;;;;;5005323;28;20110;-71
2023/01/29 04:34:30;;;;;;;73.53;32.40;;;1.00;99.90;;;;;;5012860;28;20049;-70
2023/01/29 04:37:09;;;;;;;66.40;30.83;;;1.00;99.90;;;;;;5011324;28;20022;-70
2023/01/29 04:40:13;;;;;;;66.65;31.15;;;1.00;99.90;;;;;;5012165;28;20026;-70
2023/01/29 04:43:20;;;;;;;72.72;31.67;;;1.00;99.90;;;;;;5007376;28;20111;-71
2023/01/29 04:45:51;;;;;;;76.20;33.03;;;1.00;99.90;;;;;;5007117;28;20046;-70
2023/01/29 04:48:20;;;;;;;71.50;32.30;;;1.00;99.90;;;;;;5008088;28;20034;-70
2023/01/29 04:50:54;;;;;;;74.05;33.47;;;1.10;99.90;;;;;;5013870;28;20029;-70
2023/01/29 04:54:01;;;;;;;71.93;32.97;;;1.10;99.90;;;;;;5012354;28;20077;-70
2023/01/29 04:56:43;;;;;;;72.32;32.38;;;1.10;99.90;;;;;;5007996;28;20034;-70
2023/01/29 04:59:16;;;;;;;72.65;33.63;;;1.10;99.90;;;;;;5013589;28;20087;-70
2023/01/29 05:01:42;;;;;;;;;;;1.10;99.90;;;;;;5001616;28;20453;-70
2023/01/29 05:04:13;;;;;;;71.75;31.88;;;1.10;99.90;;;;;;5010545;28;19953;-70
2023/01/29 05:06:40;;;;;;;74.05;32.90;;;1.20;99.90;;;;;;5009106;28;20029;-70
2023/01/29 05:09:07;;;;;;;75.00;34.92;;;1.20;99.90;;;;;;5008035;28;20040;-71
2023/01/29 05:11:34;;;;;;;74.57;33.58;;;1.20;99.90;;;;;;5014621;28;20386;-70
2023/01/29 05:14:03;;;;;;;76.93;34.38;;;1.20;99.90;;;;;;5008151;28;20109;-71
2023/01/29 05:16:40;;;;;;;79.70;33.88;;;1.20;99.90;;;;;;5011283;28;20022;-71
2023/01/29 05:19:09;;;;;;;64.72;32.05;;;1.20;99.90;;;;;;5012808;28;20515;-71
2023/01/29 05:21:34;;;;;;;72.32;33.22;;;1.20;99.90;;;;;;5010318;28;20026;-71
2023/01/29 05:24:24;;;;;;;79.25;34.40;;;1.20;99.90;;;;;;5007236;28;20029;-71
2023/01/29 05:29:35;;;;;;;79.53;36.08;;;1.30;99.90;;;;;;5008979;28;20084;-70
2023/01/29 05:32:02;;;;;;;83.45;36.97;;;1.30;99.90;;;;;;5007316;28;20030;-71
2023/01/29 05:34:28;;;;;;;76.97;33.63;;;1.20;99.90;;;;;;5009211;28;20045;-71
2023/01/29 05:36:54;;;;;;;75.82;35.15;;;1.20;99.90;;;;;;5009222;28;20441;-70
2023/01/29 05:39:20;;;;;;;76.53;36.05;;;1.30;99.90;;;;;;5010119;28;20026;-71
2023/01/29 05:41:45;;;;;;;80.28;37.08;;;1.30;99.90;;;;;;5012600;28;20037;-71
2023/01/29 05:44:11;;;;;;;76.32;35.33;;;1.30;99.90;;;;;;5005949;28;20427;-71
2023/01/29 05:46:37;;;;;;;84.72;38.15;;;1.30;99.90;;;;;;5008903;28;20040;-71
2023/01/29 05:49:03;;;;;;;73.65;33.97;;;1.20;99.90;;;;;;5015616;28;20029;-71
2023/01/29 05:51:29;;;;;;;80.72;36.47;;;1.20;99.90;;;;;;5006392;28;20034;-71
2023/01/29 05:53:55;;;;;;;77.35;34.25;;;1.30;99.90;;;;;;5013470;28;20372;-71
2023/01/29 05:56:20;;;;;;;79.80;36.13;;;1.40;99.90;;;;;;5010270;28;20076;-71
2023/01/29 05:58:46;;;;;;;87.78;39.28;;;1.40;99.90;;;;;;5010583;28;20433;-71
2023/01/29 06:01:16;;;;;;;81.05;35.30;;;1.30;99.90;;;;;;5011737;28;20532;-71
2023/01/29 06:03:42;;;;;;;86.93;37.85;;;1.40;99.90;;;;;;5007755;28;20072;-71
2023/01/29 06:06:08;;;;;;;80.28;37.22;;;1.40;99.90;;;;;;5019150;28;20448;-71
2023/01/29 06:08:34;;;;;;;78.38;36.92;;;1.40;99.90;;;;;;5007440;28;20022;-71
2023/01/29 06:11:00;;;;;;;86.18;39.03;;;1.50;99.90;;;;;;5010001;28;20044;-71
2023/01/29 06:13:25;;;;;;;82.30;36.10;;;1.40;99.90;;;;;;5012556;28;20025;-71
2023/01/29 06:15:51;;;;;;;85.43;39.38;;;1.50;99.90;;;;;;5009778;28;20449;-71
2023/01/29 06:18:17;;;;;;;92.32;39.58;;;1.60;99.90;;;;;;5008561;28;20148;-71
2023/01/29 06:20:43;;;;;;;82.60;35.85;;;1.40;99.90;;;;;;5014061;28;20414;-71
2023/01/29 06:23:08;;;;;;;86.15;38.65;;;1.50;99.90;;;;;;5014016;28;20107;-71
2023/01/29 06:25:34;;;;;;;85.25;38.58;;;1.60;99.90;;;;;;5012235;28;20026;-71
2023/01/29 06:28:00;;;;;;;79.68;37.72;;;1.50;99.90;;;;;;5012719;28;20030;-71
2023/01/29 06:30:27;;;;;;;86.00;38.08;;;1.60;99.90;;;;;;5010016;28;20038;-71
2023/01/29 06:32:57;;;;;;;87.55;39.55;;;1.60;99.90;;;;;;5004587;28;20535;-71
2023/01/29 06:35:23;;;;;;;88.82;40.00;;;1.60;99.90;;;;;;5004398;28;20413;-71
2023/01/29 06:37:49;;;;;;;88.60;41.42;;;1.60;99.90;;;;;;5012340;28;20134;-71
2023/01/29 06:40:15;;;;;;;91.80;42.85;;;1.70;99.90;;;;;;5006521;28;20110;-71
2023/01/29 06:42:40;;;;;;;88.05;42.50;;;1.60;99.90;;;;;;5012222;28;20053;-71
2023/01/29 06:45:06;;;;;;;89.25;41.67;;;1.50;99.90;;;;;;5004099;28;20040;-71
2023/01/29 06:47:32;;;;;;;90.30;40.20;;;1.60;99.90;;;;;;5011757;28;20026;-71
2023/01/29 06:49:58;;;;;;;88.68;39.85;;;1.60;99.90;;;;;;5012224;28;20040;-71
2023/01/29 06:52:27;;;;;;;84.40;39.20;;;1.60;99.90;;;;;;5012656;28;20041;-71
2023/01/29 06:54:56;;;;;;;89.63;40.65;;;1.50;99.90;;;;;;5009075;28;20030;-71
2023/01/29 06:57:21;;;;;;;92.80;42.22;;;1.50;99.90;;;;;;5004229;28;20034;-71
2023/01/29 06:59:47;;;;;;;87.35;39.55;;;1.50;99.90;;;;;;5012727;28;20024;-71
2023/01/29 07:02:13;;;;;;;94.05;42.17;;;1.50;99.90;;;;;;5011561;28;20433;-72
2023/01/29 07:04:40;;;;;;;88.15;40.30;;;1.50;99.90;;;;;;5010781;28;20453;-71
2023/01/29 07:07:11;;;;;;;92.28;41.30;;;1.50;99.90;;;;;;5010173;28;20045;-71
2023/01/29 07:09:41;;;;;;;83.13;39.25;;;1.60;99.90;;;;;;5004235;28;20041;-72
2023/01/29 07:12:08;;;;;;;83.63;39.58;;;1.60;99.90;;;;;;5011290;28;20434;-71
2023/01/29 07:14:34;;;;;;;86.35;39.90;;;1.60;99.90;;;;;;5010920;28;20041;-71
2023/01/29 07:16:59;;;;;;;75.15;34.65;;;1.60;99.90;;;;;;5011373;28;20478;-71
2023/01/29 07:19:25;;;;;;;87.88;38.60;;;1.70;99.90;;;;;;5006413;28;20027;-71
2023/01/29 07:21:51;;;;;;;90.78;37.75;;;1.70;99.90;;;;;;5009556;28;20037;-71
2023/01/29 07:24:16;;;;;;;86.28;39.63;;;1.60;99.90;;;;;;5006243;28;20027;-71
2023/01/29 07:26:42;;;;;;;85.05;38.30;;;1.70;99.90;;;;;;5008895;28;20464;-71
2023/01/29 07:29:07;;;;;;;81.30;37.28;;;1.70;99.90;;;;;;5007286;28;20030;-73
2023/01/29 07:31:33;;;;;;;87.90;39.63;;;1.80;99.90;;;;;;5009329;28;20091;-70
2023/01/29 07:33:59;;;;;;;83.45;38.50;;;1.70;99.90;;;;;;5007682;28;20027;-71
2023/01/29 07:36:25;;;;;;;75.85;34.70;;;1.80;99.90;;;;;;5020790;28;20041;-74
2023/01/29 07:38:51;;;;;;;80.45;36.05;;;1.80;99.90;;;;;;5013427;28;20022;-71
2023/01/29 07:41:17;;;;;;;71.53;33.88;;;1.70;99.90;;;;;;5011753;28;20036;-71
2023/01/29 07:43:43;;;;;;;81.32;38.15;;;1.70;99.90;;;;;;5014554;28;20021;-71
2023/01/29 07:46:09;;;;;;;81.53;37.13;;;1.70;99.90;;;;;;5012421;28;20467;-71
2023/01/29 07:48:34;;;;;;;83.30;38.08;;;1.90;99.90;;;;;;5012309;28;20021;-71
2023/01/29 07:51:00;;;;;;;85.22;37.67;;;1.80;99.90;;;;;;5013824;28;20033;-71
2023/01/29 07:53:26;;;;;;;82.03;38.58;;;1.80;99.90;;;;;;5008619;28;20048;-71
2023/01/29 07:55:52;;;;;;;77.38;36.25;;;1.80;99.90;;;;;;5014427;28;20018;-71
2023/01/29 07:58:18;;;;;;;74.75;35.33;;;1.90;99.90;;;;;;5011374;28;20109;-71
2023/01/29 08:00:43;;;;;;;86.18;36.13;;;1.90;99.90;;;;;;5012144;28;20025;-72
2023/01/29 08:03:19;;;;;;;80.82;36.30;;;1.80;99.90;;;;;;5017847;28;20048;-71
2023/01/29 08:05:46;;;;;;;74.55;32.47;;;1.90;99.90;;;;;;5008254;28;20383;-71
2023/01/29 08:08:12;;;;;;;74.80;34.55;;;1.90;99.90;;;;;;5015290;28;20405;-71
2023/01/29 08:10:39;;;;;;;79.63;35.85;;;1.90;99.90;;;;;;5013535;28;20105;-71
2023/01/29 08:13:05;;;;;;;75.63;35.10;;;1.90;99.90;;;;;;5014257;28;20470;-71
2023/01/29 08:15:32;;;;;;;72.55;33.17;;;1.90;99.90;;;;;;5012013;28;20022;-71
2023/01/29 08:17:57;;;;;;;71.55;33.63;;;2.00;99.90;;;;;;5013993;28;20034;-71
2023/01/29 08:20:23;;;;;;;74.18;32.88;;;2.00;99.90;;;;;;5013595;28;20544;-70
2023/01/29 08:22:56;;;;;;;77.80;33.95;;;2.00;99.90;;;;;;5011456;28;20064;-71
2023/01/29 08:25:22;;;;;;;70.72;32.53;;;2.00;99.90;;;;;;5008903;28;20429;-72
2023/01/29 08:27:48;;;;;;;70.25;32.45;;;2.00;99.90;;;;;;5010469;28;20080;-71
2023/01/29 08:30:13;;;;;;;74.40;32.45;;;2.00;99.90;;;;;;5013355;28;20095;-70
2023/01/29 08:32:39;;;;;;;72.32;32.50;;;2.00;99.90;;;;;;5011644;28;20030;-70
2023/01/29 08:35:05;;;;;;;73.20;33.67;;;2.00;99.90;;;;;;5010996;28;20502;-70
2023/01/29 08:37:30;;;;;;;71.55;33.53;;;2.10;99.90;;;;;;5011914;28;20025;-70
2023/01/29 08:39:56;;;;;;;74.57;33.55;;;2.10;99.90;;;;;;5014015;28;20018;-71
2023/01/29 08:42:22;;;;;;;73.72;34.15;;;2.00;99.90;;;;;;5007270;28;20034;-71
2023/01/29 08:44:47;;;;;;;70.97;34.80;;;2.00;99.90;;;;;;5014098;28;20050;-70
2023/01/29 08:47:14;;;;;;;76.45;35.20;;;2.10;99.90;;;;;;5008450;28;20034;-70
2023/01/29 08:49:39;;;;;;;71.03;34.05;;;2.00;99.90;;;;;;5007550;28;20034;-70
2023/01/29 08:52:05;;;;;;;70.65;32.75;;;2.00;99.90;;;;;;5006596;28;20574;-70
2023/01/29 08:54:30;;;;;;;74.95;34.08;;;2.00;99.90;;;;;;5012923;28;20021;-70
2023/01/29 08:56:56;;;;;;;71.28;31.67;;;2.00;99.90;;;;;;5014732;28;20037;-70
2023/01/29 08:59:22;;;;;;;64.65;30.98;;;2.10;99.90;;;;;;5012055;28;20032;-70
2023/01/29 09:01:47;;;;;;;73.10;33.92;;;2.20;99.90;;;;;;5011276;28;20483;-71
2023/01/29 09:04:13;;;;;;;67.60;32.30;;;2.20;99.90;;;;;;5010197;28;20084;-71
2023/01/29 09:06:39;;;;;;;78.03;34.20;;;2.30;99.90;;;;;;5003699;28;20033;-70
2023/01/29 09:09:04;;;;;;;73.50;33.50;;;2.20;99.90;;;;;;5013092;28;20021;-71
2023/01/29 09:11:30;;;;;;;70.30;32.78;;;2.20;99.90;;;;;;5008517;28;20052;-70
2023/01/29 09:13:55;;;;;;;69.40;33.55;;;2.10;99.90;;;;;;5013439;28;20109;-71
2023/01/29 09:16:21;;;;;;;66.22;31.98;;;2.10;99.90;;;;;;5014299;28;20101;-70
2023/01/29 09:18:47;;;;;;;72.50;32.25;;;2.20;99.90;;;;;;5010929;28;20053;-70
2023/01/29 09:21:12;;;;;;;70.72;32.45;;;2.20;99.90;;;;;;5008457;28;20029;-71
2023/01/29 09:23:38;;;;;;;73.93;32.92;;;2.20;99.90;;;;;;5010695;28;20025;-70
2023/01/29 09:26:05;;;;;;;67.95;31.02;;;2.20;99.90;;;;;;5013711;28;20029;-69
2023/01/29 09:28:31;;;;;;;68.32;31.40;;;2.30;99.90;;;;;;5003663;28;20050;-70
2023/01/29 09:31:01;;;;;;;70.65;31.23;;;2.30;99.90;;;;;;5011609;28;20076;-70
2023/01/29 09:33:27;;;;;;;71.63;33.30;;;2.20;99.90;;;;;;5011969;28;20048;-71
2023/01/29 09:35:53;;;;;;;72.07;33.35;;;2.30;99.90;;;;;;5012900;28;20080;-70
2023/01/29 09:38:19;;;;;;;75.25;35.17;;;2.40;99.90;;;;;;5012499;28;20030;-74
2023/01/29 09:41:04;;;;;;;72.93;34.72;;;2.40;99.90;;;;;;5007664;28;20038;-70
2023/01/29 09:43:52;;;;;;;66.53;33.40;;;2.40;99.90;;;;;;5009437;28;20060;-70
2023/01/29 09:46:59;;;;;;;70.40;34.22;;;2.30;99.90;;;;;;5007307;28;20030;-69
2023/01/29 09:49:34;;;;;;;73.28;34.15;;;2.40;99.90;;;;;;4990722;28;20029;-70
2023/01/29 09:52:10;;;;;;;74.85;35.25;;;2.50;99.90;;;;;;5006164;28;20633;-71
2023/01/29 09:54:50;;;;;;;78.35;35.95;;;2.50;99.90;;;;;;5010971;28;20092;-71
2023/01/29 09:57:27;;;;;;;74.13;35.95;;;2.60;99.90;;;;;;5011222;28;20026;-70
2023/01/29 09:59:54;;;;;;;70.63;34.75;;;2.60;99.90;;;;;;5008755;28;20021;-71
2023/01/29 10:02:45;;;;;;;71.88;35.40;;;2.70;99.90;;;;;;5011426;28;20375;-70
2023/01/29 10:05:22;;;;;;;67.57;32.00;;;2.70;99.90;;;;;;5012345;28;20056;-69
2023/01/29 10:08:12;;;;;;;72.90;33.17;;;2.60;99.90;;;;;;5007947;28;20022;-70
2023/01/29 10:10:53;;;;;;;70.97;33.20;;;2.60;99.90;;;;;;5011399;28;20056;-70
2023/01/29 10:13:52;;;;;;;74.40;33.83;;;2.60;99.90;;;;;;5005197;28;20509;-70
2023/01/29 10:16:21;;;;;;;74.18;34.05;;;2.70;99.90;;;;;;5009337;28;20030;-70
2023/01/29 10:19:19;;;;;;;78.68;33.50;;;2.60;99.90;;;;;;5007454;28;20033;-70
2023/01/29 10:22:08;;;;;;;66.88;32.63;;;2.70;99.90;;;;;;5009170;28;20030;-70
2023/01/29 10:25:03;;;;;;;72.72;34.00;;;2.70;99.90;;;;;;5002920;28;20117;-69
2023/01/29 10:27:37;;;;;;;69.20;30.67;;;2.80;99.90;;;;;;5008961;28;20034;-69
2023/01/29 10:30:08;;;;;;;71.38;32.08;;;2.80;99.90;;;;;;5002819;28;20018;-69
2023/01/29 10:32:36;;;;;;;70.63;33.65;;;2.70;99.90;;;;;;5008957;28;20034;-69
2023/01/29 10:35:29;;;;;;;71.05;34.30;;;2.80;99.90;;;;;;5007793;28;20045;-70
2023/01/29 10:38:01;;;;;;;71.18;33.38;;;2.80;99.90;;;;;;5003146;28;20055;-69
2023/01/29 10:40:37;;;;;;;64.38;30.95;;;2.80;99.90;;;;;;5003061;28;20053;-70
2023/01/29 10:43:12;;;;;;;73.70;34.20;;;2.80;99.90;;;;;;5007166;28;20095;-69
2023/01/29 10:45:59;;;;;;;76.90;33.80;;;2.80;99.90;;;;;;5003230;28;20028;-69
2023/01/29 10:48:57;;;;;;;70.95;32.25;;;2.80;99.90;;;;;;5002561;28;20056;-69
2023/01/29 10:51:29;;;;;;;65.70;31.42;;;2.90;99.90;;;;;;5007427;28;20029;-69
2023/01/29 10:54:06;;;;;;;71.20;33.28;;;3.00;99.90;;;;;;5003790;28;20072;-70
2023/01/29 10:56:41;;;;;;;70.15;33.47;;;3.00;99.90;;;;;;5005712;28;20034;-69
2023/01/29 10:59:35;;;;;;;63.00;33.60;;;3.00;99.90;;;;;;5009902;28;20109;-70
2023/01/29 11:02:02;;;;;;;70.78;32.70;;;3.00;99.90;;;;;;5005395;28;20030;-70
2023/01/29 11:04:30;;;;;;;69.05;31.73;;;3.00;99.90;;;;;;5002907;28;20037;-70
2023/01/29 11:06:57;;;;;;;67.97;32.28;;;3.00;99.90;;;;;;5007195;28;20037;-70
2023/01/29 11:09:35;;;;;;;69.00;32.42;;;3.00;99.90;;;;;;5004960;28;20022;-69
2023/01/29 11:12:25;;;;;;;65.97;31.67;;;3.00;99.90;;;;;;5008165;28;20430;-69
2023/01/29 11:15:19;;;;;;;73.35;30.52;;;3.00;99.90;;;;;;5004593;28;20115;-67
2023/01/29 11:18:05;;;;;;;59.65;29.02;;;3.10;99.90;;;;;;5002929;28;20045;-69
2023/01/29 11:20:32;;;;;;;61.67;30.90;;;3.20;99.90;;;;;;5004508;28;20482;-69
2023/01/29 11:22:58;;;;;;;67.65;30.92;;;3.20;99.90;;;;;;5008482;28;20483;-68
2023/01/29 11:25:24;;;;;;;66.35;31.55;;;3.20;99.90;;;;;;5007543;28;20026;-68
2023/01/29 11:28:04;;;;;;;64.80;29.88;;;3.20;99.90;;;;;;5005913;28;20034;-68
2023/01/29 11:30:33;;;;;;;63.25;30.77;;;3.30;99.90;;;;;;5006130;28;20044;-69
2023/01/29 11:33:22;;;;;;;70.20;31.52;;;3.20;99.90;;;;;;5007958;28;20057;-68
2023/01/29 11:35:48;;;;;;;60.97;29.13;;;3.30;99.90;;;;;;4997447;28;20368;-68
2023/01/29 11:38:24;;;;;;;62.80;29.55;;;3.30;99.90;;;;;;5008160;28;20041;-70
2023/01/29 11:40:50;;;;;;;65.38;30.77;;;3.40;99.90;;;;;;4996546;28;20073;-69
2023/01/29 11:43:32;;;;;;;63.95;29.92;;;3.40;99.90;;;;;;5009033;28;20030;-69
2023/01/29 11:46:03;;;;;;;58.30;27.60;;;3.60;99.90;;;;;;5003474;28;20026;-68
2023/01/29 11:48:49;;;;;;;67.23;29.73;;;3.60;99.90;;;;;;5008992;28;20022;-70
2023/01/29 11:51:24;;;;;;;63.33;29.50;;;3.60;99.90;;;;;;5000161;28;20026;-69
2023/01/29 11:54:00;;;;;;;67.13;31.23;;;3.70;99.90;;;;;;5010439;28;20113;-69
2023/01/29 11:56:33;;;;;;;62.88;29.45;;;3.70;99.90;;;;;;5008521;28;20041;-69
2023/01/29 11:59:03;;;;;;;55.70;28.27;;;3.70;99.90;;;;;;5010385;28;20497;-72
2023/01/29 12:01:38;;;;;;;65.10;29.92;;;3.60;99.90;;;;;;5005544;28;20473;-69
2023/01/29 12:04:19;;;;;;;56.92;28.00;;;3.60;99.90;;;;;;5007783;28;20049;-72
2023/01/29 12:06:47;;;;;;;64.70;29.55;;;3.60;99.90;;;;;;5008282;28;20026;-68
2023/01/29 12:09:18;;;;;;;57.63;30.30;;;3.70;99.90;;;;;;5008352;28;20038;-68
2023/01/29 12:11:44;;;;;;;61.70;29.50;;;3.80;99.90;;;;;;5011670;28;20048;-69
2023/01/29 12:14:32;;;;;;;57.95;29.27;;;3.80;99.90;;;;;;5010672;28;20382;-69
2023/01/29 12:17:06;;;;;;;56.47;27.13;;;3.80;99.90;;;;;;5004077;28;20489;-69
2023/01/29 12:19:45;;;;;;;52.13;25.95;;;3.80;99.90;;;;;;5008728;28;20022;-69
2023/01/29 12:22:16;;;;;;;50.85;25.55;;;3.90;99.90;;;;;;5010446;28;20463;-69
2023/01/29 12:25:32;;;;;;;51.42;25.63;;;4.00;99.90;;;;;;5006901;28;20045;-68
2023/01/29 12:28:21;;;;;;;50.72;25.83;;;4.00;99.90;;;;;;4990031;28;20117;-69
2023/01/29 12:31:14;;;;;;;54.78;25.83;;;4.00;99.90;;;;;;5009969;28;20109;-69
2023/01/29 12:33:45;;;;;;;51.78;25.67;;;4.10;99.90;;;;;;5003673;28;20052;-70
2023/01/29 12:36:35;;;;;;;48.45;25.13;;;4.10;99.90;;;;;;5009886;28;20060;-69
2023/01/29 12:39:00;;;;;;;54.22;25.23;;;4.10;99.90;;;;;;5009748;28;20033;-70
2023/01/29 12:41:49;;;;;;;52.13;24.42;;;4.20;99.90;;;;;;5008294;28;20437;-69
2023/01/29 12:44:50;;;;;;;51.35;25.20;;;4.20;99.90;;;;;;5009030;28;20030;-71
2023/01/29 12:47:31;;;;;;;45.15;23.70;;;4.20;99.90;;;;;;5015932;28;20053;-73
2023/01/29 12:50:02;;;;;;;45.92;23.38;;;4.20;99.90;;;;;;5013868;28;20026;-71
2023/01/29 12:52:38;;;;;;;45.20;23.13;;;4.20;99.90;;;;;;5006958;28;20080;-70
2023/01/29 12:55:28;;;;;;;44.10;22.23;;;4.10;99.90;;;;;;5012196;28;20022;-71
2023/01/29 12:58:03;;;;;;;45.72;22.38;;;4.10;99.90;;;;;;5007534;28;20471;-72
2023/01/29 13:00:35;;;;;;;48.35;23.65;;;4.20;99.90;;;;;;5013891;28;20060;-72
2023/01/29 13:03:09;;;;;;;41.35;21.50;;;4.20;99.90;;;;;;5009606;28;20034;-72
2023/01/29 13:05:47;;;;;;;44.15;22.52;;;4.30;99.90;;;;;;5012062;28;20021;-72
2023/01/29 13:08:41;;;;;;;43.55;23.55;;;4.30;99.90;;;;;;5012454;28;20502;-72
2023/01/29 13:11:14;;;;;;;50.60;22.75;;;4.30;99.90;;;;;;5009840;28;20033;-73
2023/01/29 13:13:51;;;;;;;42.33;22.85;;;4.40;99.90;;;;;;5012298;28;20052;-73
2023/01/29 13:16:22;;;;;;;43.72;21.33;;;4.30;99.90;;;;;;5013420;28;20018;-73
2023/01/29 13:19:04;;;;;;;47.88;24.05;;;4.30;99.90;;;;;;5010940;28;20026;-72
2023/01/29 13:21:33;;;;;;;;;;;4.30;99.90;;;;;;5010676;28;20057;-72
2023/01/29 13:24:03;;;;;;;46.45;22.30;;;4.20;99.90;;;;;;5013433;28;20262;-72
2023/01/29 13:26:30;;;;;;;45.92;23.77;;;4.30;99.90;;;;;;5007432;28;20504;-72
2023/01/29 13:28:57;;;;;;;45.30;24.27;;;4.30;99.90;;;;;;5009074;28;20034;-73
2023/01/29 13:31:28;;;;;;;41.20;21.80;;;4.20;99.90;;;;;;5012336;28;20028;-71
2023/01/29 13:34:24;;;;;;;51.38;25.05;;;4.20;99.90;;;;;;5011930;28;20070;-73
2023/01/29 13:36:56;;;;;;;48.55;24.85;;;4.20;99.90;;;;;;5012553;28;20493;-72